sensor_id;sensor_type;location;lat;lon;timestamp;pressure;altitude;pressure_sealevel;temperature;humidity
77120;BME280;66073;47.730;9.352;2023-12-22T00:00:14;95690.84;;;8.24;100.00
77120;BME280;66073;47.730;9.352;2023-12-22T00:02:40;95671.66;;;8.04;100.00
77120;BME280;66073;47.730;9.352;2023-12-22T00:05:06;95689.03;;;8.20;100.00
77120;BME280;66073;47.730;9.352;2023-12-22T00:07:31;95703.34;;;8.24;100.00
77120;BME280;66073;47.730;9.352;2023-12-22T00:09:57;95691.53;;;8.35;100.00
77120;BME280;66073;47.730;9.352;2023-12-22T00:12:22;95690.28;;;8.27;100.00
77120;BME280;66073;47.730;9.352;2023-12-22T00:14:48;95686.88;;;8.22;100.00
77120;BME280;66073;47.730;9.352;2023-12-22T00:17:13;95673.44;;;8.37;100.00
77120;BME280;66073;47.730;9.352;2023-12-22T00:19:39;95691.63;;;8.25;100.00
77120;BME280;66073;47.730;9.352;2023-12-22T00:22:04;95684.19;;;8.27;100.00
77120;BME280;66073;47.730;9.352;2023-12-22T00:24:29;95697.63;;;8.12;100.00
77120;BME280;66073;47.730;9.352;2023-12-22T00:26:55;95713.22;;;7.94;100.00
77120;BME280;66073;47.730;9.352;2023-12-22T00:29:20;95727.22;;;7.76;100.00
77120;BME280;66073;47.730;9.352;2023-12-22T00:31:46;95728.19;;;7.85;100.00
77120;BME280;66073;47.730;9.352;2023-12-22T00:34:11;95733.63;;;7.99;100.00
77120;BME280;66073;47.730;9.352;2023-12-22T00:36:37;95719.09;;;7.91;100.00
77120;BME280;66073;47.730;9.352;2023-12-22T00:39:02;95714.72;;;7.77;100.00
77120;BME280;66073;47.730;9.352;2023-12-22T00:41:28;95731.38;;;7.82;100.00
77120;BME280;66073;47.730;9.352;2023-12-22T00:43:53;95719.72;;;7.78;100.00
77120;BME280;66073;47.730;9.352;2023-12-22T00:46:19;95729.81;;;7.81;100.00
77120;BME280;66073;47.730;9.352;2023-12-22T00:48:45;95717.50;;;7.90;100.00
77120;BME280;66073;47.730;9.352;2023-12-22T00:51:11;95709.00;;;7.88;100.00
77120;BME280;66073;47.730;9.352;2023-12-22T00:53:36;95758.75;;;7.83;100.00
77120;BME280;66073;47.730;9.352;2023-12-22T00:56:02;95738.88;;;7.80;100.00
77120;BME280;66073;47.730;9.352;2023-12-22T00:58:31;95738.41;;;7.73;100.00
77120;BME280;66073;47.730;9.352;2023-12-22T01:00:56;95753.22;;;7.74;100.00
77120;BME280;66073;47.730;9.352;2023-12-22T01:03:22;95749.84;;;7.69;100.00
77120;BME280;66073;47.730;9.352;2023-12-22T01:05:47;95763.88;;;7.74;100.00
77120;BME280;66073;47.730;9.352;2023-12-22T01:08:13;95764.56;;;7.56;100.00
77120;BME280;66073;47.730;9.352;2023-12-22T01:10:38;95790.78;;;7.63;100.00
77120;BME280;66073;47.730;9.352;2023-12-22T01:13:04;95780.25;;;7.53;100.00
77120;BME280;66073;47.730;9.352;2023-12-22T01:15:29;95781.03;;;7.53;100.00
77120;BME280;66073;47.730;9.352;2023-12-22T01:17:54;95775.66;;;7.63;100.00
77120;BME280;66073;47.730;9.352;2023-12-22T01:20:20;95761.81;;;7.66;100.00
77120;BME280;66073;47.730;9.352;2023-12-22T01:22:45;95761.44;;;7.44;100.00
77120;BME280;66073;47.730;9.352;2023-12-22T01:25:11;95763.56;;;7.42;100.00
77120;BME280;66073;47.730;9.352;2023-12-22T01:27:36;95751.03;;;7.53;100.00
77120;BME280;66073;47.730;9.352;2023-12-22T01:30:02;95768.63;;;7.43;100.00
77120;BME280;66073;47.730;9.352;2023-12-22T01:32:27;95765.06;;;7.58;100.00
77120;BME280;66073;47.730;9.352;2023-12-22T01:34:59;95771.16;;;7.59;100.00
77120;BME280;66073;47.730;9.352;2023-12-22T01:37:29;95763.81;;;7.45;100.00
77120;BME280;66073;47.730;9.352;2023-12-22T01:39:54;95760.25;;;7.60;100.00
77120;BME280;66073;47.730;9.352;2023-12-22T01:42:19;95774.09;;;7.57;100.00
77120;BME280;66073;47.730;9.352;2023-12-22T01:44:45;95785.56;;;7.53;100.00
77120;BME280;66073;47.730;9.352;2023-12-22T01:47:10;95780.19;;;7.63;100.00
77120;BME280;66073;47.730;9.352;2023-12-22T01:49:36;95795.38;;;7.52;100.00
77120;BME280;66073;47.730;9.352;2023-12-22T01:52:01;95766.22;;;7.47;100.00
77120;BME280;66073;47.730;9.352;2023-12-22T01:54:27;95771.03;;;7.40;100.00
77120;BME280;66073;47.730;9.352;2023-12-22T01:56:54;95773.69;;;7.40;100.00
77120;BME280;66073;47.730;9.352;2023-12-22T01:59:20;95770.00;;;7.36;100.00
77120;BME280;66073;47.730;9.352;2023-12-22T02:01:45;95767.25;;;7.51;100.00
77120;BME280;66073;47.730;9.352;2023-12-22T02:04:12;95770.00;;;7.36;100.00
77120;BME280;66073;47.730;9.352;2023-12-22T02:06:39;95777.84;;;7.56;100.00
77120;BME280;66073;47.730;9.352;2023-12-22T02:09:05;95771.84;;;7.40;100.00
77120;BME280;66073;47.730;9.352;2023-12-22T02:11:30;95783.19;;;7.51;100.00
77120;BME280;66073;47.730;9.352;2023-12-22T02:13:56;95786.81;;;7.60;100.00
77120;BME280;66073;47.730;9.352;2023-12-22T02:16:46;95803.75;;;7.30;100.00
77120;BME280;66073;47.730;9.352;2023-12-22T02:19:41;95795.25;;;7.28;100.00
77120;BME280;66073;47.730;9.352;2023-12-22T02:22:08;95785.41;;;7.34;100.00
77120;BME280;66073;47.730;9.352;2023-12-22T02:24:34;95813.25;;;7.41;100.00
77120;BME280;66073;47.730;9.352;2023-12-22T02:27:29;95792.75;;;7.47;100.00
77120;BME280;66073;47.730;9.352;2023-12-22T02:30:13;95834.69;;;7.50;100.00
77120;BME280;66073;47.730;9.352;2023-12-22T02:32:45;95790.63;;;7.49;100.00
77120;BME280;66073;47.730;9.352;2023-12-22T02:35:21;95797.75;;;7.54;100.00
77120;BME280;66073;47.730;9.352;2023-12-22T02:37:50;95778.41;;;7.48;100.00
77120;BME280;66073;47.730;9.352;2023-12-22T02:40:16;95772.31;;;7.47;100.00
77120;BME280;66073;47.730;9.352;2023-12-22T02:42:44;95793.41;;;7.29;100.00
77120;BME280;66073;47.730;9.352;2023-12-22T02:45:17;95789.16;;;7.28;100.00
77120;BME280;66073;47.730;9.352;2023-12-22T02:47:44;95796.13;;;7.19;100.00
77120;BME280;66073;47.730;9.352;2023-12-22T02:50:10;95797.97;;;7.23;100.00
77120;BME280;66073;47.730;9.352;2023-12-22T02:52:37;95810.97;;;7.20;100.00
77120;BME280;66073;47.730;9.352;2023-12-22T02:55:03;95815.59;;;7.43;100.00
77120;BME280;66073;47.730;9.352;2023-12-22T02:57:29;95818.16;;;7.14;100.00
77120;BME280;66073;47.730;9.352;2023-12-22T02:59:54;95820.00;;;7.14;100.00
77120;BME280;66073;47.730;9.352;2023-12-22T03:02:20;95815.94;;;7.31;100.00
77120;BME280;66073;47.730;9.352;2023-12-22T03:04:45;95814.13;;;7.27;100.00
77120;BME280;66073;47.730;9.352;2023-12-22T03:07:14;95817.34;;;7.24;100.00
77120;BME280;66073;47.730;9.352;2023-12-22T03:09:40;95823.50;;;7.09;100.00
77120;BME280;66073;47.730;9.352;2023-12-22T03:12:06;95844.69;;;7.19;100.00
77120;BME280;66073;47.730;9.352;2023-12-22T03:14:32;95828.44;;;7.26;100.00
77120;BME280;66073;47.730;9.352;2023-12-22T03:17:03;95819.94;;;7.34;100.00
77120;BME280;66073;47.730;9.352;2023-12-22T03:19:29;95817.47;;;6.93;100.00
77120;BME280;66073;47.730;9.352;2023-12-22T03:21:55;95822.72;;;7.04;100.00
77120;BME280;66073;47.730;9.352;2023-12-22T03:24:22;95832.38;;;6.79;100.00
77120;BME280;66073;47.730;9.352;2023-12-22T03:26:52;95824.88;;;7.02;100.00
77120;BME280;66073;47.730;9.352;2023-12-22T03:29:18;95810.78;;;7.06;100.00
77120;BME280;66073;47.730;9.352;2023-12-22T03:31:44;95823.81;;;6.92;100.00
77120;BME280;66073;47.730;9.352;2023-12-22T03:34:10;95827.81;;;6.90;100.00
77120;BME280;66073;47.730;9.352;2023-12-22T03:36:35;95826.78;;;6.86;100.00
77120;BME280;66073;47.730;9.352;2023-12-22T03:39:01;95837.38;;;6.91;100.00
77120;BME280;66073;47.730;9.352;2023-12-22T03:41:28;95803.09;;;6.99;100.00
77120;BME280;66073;47.730;9.352;2023-12-22T03:43:54;95812.84;;;7.14;100.00
77120;BME280;66073;47.730;9.352;2023-12-22T03:46:20;95832.78;;;7.12;100.00
77120;BME280;66073;47.730;9.352;2023-12-22T03:48:45;95841.25;;;7.14;100.00
77120;BME280;66073;47.730;9.352;2023-12-22T03:51:12;95841.84;;;7.01;100.00
77120;BME280;66073;47.730;9.352;2023-12-22T03:53:38;95835.94;;;7.14;100.00
77120;BME280;66073;47.730;9.352;2023-12-22T03:56:04;95826.47;;;6.97;100.00
77120;BME280;66073;47.730;9.352;2023-12-22T03:58:29;95822.78;;;6.88;100.00
77120;BME280;66073;47.730;9.352;2023-12-22T04:00:56;95838.75;;;6.68;100.00
77120;BME280;66073;47.730;9.352;2023-12-22T04:03:21;95850.16;;;6.69;100.00
77120;BME280;66073;47.730;9.352;2023-12-22T04:05:47;95867.63;;;6.85;100.00
77120;BME280;66073;47.730;9.352;2023-12-22T04:08:12;95865.25;;;6.78;100.00
77120;BME280;66073;47.730;9.352;2023-12-22T04:10:38;95864.94;;;6.95;100.00
77120;BME280;66073;47.730;9.352;2023-12-22T04:13:03;95862.63;;;6.73;100.00
77120;BME280;66073;47.730;9.352;2023-12-22T04:15:29;95861.00;;;6.82;100.00
77120;BME280;66073;47.730;9.352;2023-12-22T04:17:54;95864.22;;;6.69;100.00
77120;BME280;66073;47.730;9.352;2023-12-22T04:20:19;95866.59;;;6.81;100.00
77120;BME280;66073;47.730;9.352;2023-12-22T04:22:45;95870.03;;;6.71;100.00
77120;BME280;66073;47.730;9.352;2023-12-22T04:25:10;95857.91;;;6.50;100.00
77120;BME280;66073;47.730;9.352;2023-12-22T04:27:36;95859.97;;;6.73;100.00
77120;BME280;66073;47.730;9.352;2023-12-22T04:30:01;95854.16;;;6.61;100.00
77120;BME280;66073;47.730;9.352;2023-12-22T04:32:27;95841.72;;;6.57;100.00
77120;BME280;66073;47.730;9.352;2023-12-22T04:34:52;95840.41;;;6.54;100.00
77120;BME280;66073;47.730;9.352;2023-12-22T04:37:18;95833.47;;;6.68;100.00
77120;BME280;66073;47.730;9.352;2023-12-22T04:39:43;95841.97;;;6.60;100.00
77120;BME280;66073;47.730;9.352;2023-12-22T04:42:09;95841.94;;;6.80;100.00
77120;BME280;66073;47.730;9.352;2023-12-22T04:44:34;95839.81;;;6.77;100.00
77120;BME280;66073;47.730;9.352;2023-12-22T04:47:01;95836.03;;;6.93;100.00
77120;BME280;66073;47.730;9.352;2023-12-22T04:49:26;95874.81;;;6.79;100.00
77120;BME280;66073;47.730;9.352;2023-12-22T04:51:52;95867.91;;;6.83;100.00
77120;BME280;66073;47.730;9.352;2023-12-22T04:54:17;95843.47;;;6.91;100.00
77120;BME280;66073;47.730;9.352;2023-12-22T04:56:42;95833.38;;;6.88;100.00
77120;BME280;66073;47.730;9.352;2023-12-22T04:59:08;95831.75;;;7.03;100.00
77120;BME280;66073;47.730;9.352;2023-12-22T05:01:34;95854.34;;;6.95;100.00
77120;BME280;66073;47.730;9.352;2023-12-22T05:04:00;95860.41;;;7.06;100.00
77120;BME280;66073;47.730;9.352;2023-12-22T05:06:25;95865.16;;;7.04;100.00
77120;BME280;66073;47.730;9.352;2023-12-22T05:08:51;95866.53;;;6.96;100.00
77120;BME280;66073;47.730;9.352;2023-12-22T05:11:16;95865.22;;;6.93;100.00
77120;BME280;66073;47.730;9.352;2023-12-22T05:13:41;95886.97;;;6.85;100.00
77120;BME280;66073;47.730;9.352;2023-12-22T05:16:08;95876.13;;;6.92;100.00
77120;BME280;66073;47.730;9.352;2023-12-22T05:18:33;95880.28;;;7.08;100.00
77120;BME280;66073;47.730;9.352;2023-12-22T05:20:59;95881.13;;;6.88;100.00
77120;BME280;66073;47.730;9.352;2023-12-22T05:23:24;95892.28;;;6.95;100.00
77120;BME280;66073;47.730;9.352;2023-12-22T05:25:50;95888.50;;;7.12;100.00
77120;BME280;66073;47.730;9.352;2023-12-22T05:28:16;95901.56;;;6.93;100.00
77120;BME280;66073;47.730;9.352;2023-12-22T05:30:42;95909.53;;;6.83;100.00
77120;BME280;66073;47.730;9.352;2023-12-22T05:33:07;95904.94;;;7.14;100.00
77120;BME280;66073;47.730;9.352;2023-12-22T05:35:33;95927.22;;;7.18;100.00
77120;BME280;66073;47.730;9.352;2023-12-22T05:37:58;95933.38;;;6.98;100.00
77120;BME280;66073;47.730;9.352;2023-12-22T05:40:23;95937.88;;;7.08;100.00
77120;BME280;66073;47.730;9.352;2023-12-22T05:42:49;95933.34;;;7.08;100.00
77120;BME280;66073;47.730;9.352;2023-12-22T05:45:14;95939.47;;;7.09;100.00
77120;BME280;66073;47.730;9.352;2023-12-22T05:47:40;95938.91;;;7.12;100.00
77120;BME280;66073;47.730;9.352;2023-12-22T05:50:06;95947.75;;;6.77;100.00
77120;BME280;66073;47.730;9.352;2023-12-22T05:52:31;95947.97;;;7.06;100.00
77120;BME280;66073;47.730;9.352;2023-12-22T05:54:57;95947.63;;;7.22;100.00
77120;BME280;66073;47.730;9.352;2023-12-22T05:57:25;95971.31;;;6.88;100.00
77120;BME280;66073;47.730;9.352;2023-12-22T05:59:50;95971.91;;;6.70;100.00
77120;BME280;66073;47.730;9.352;2023-12-22T06:02:15;95975.56;;;6.89;100.00
77120;BME280;66073;47.730;9.352;2023-12-22T06:04:41;95968.88;;;7.17;100.00
77120;BME280;66073;47.730;9.352;2023-12-22T06:07:06;95980.56;;;7.16;100.00
77120;BME280;66073;47.730;9.352;2023-12-22T06:09:32;95990.94;;;7.08;100.00
77120;BME280;66073;47.730;9.352;2023-12-22T06:11:57;95985.06;;;7.26;100.00
77120;BME280;66073;47.730;9.352;2023-12-22T06:14:23;95978.66;;;7.32;100.00
77120;BME280;66073;47.730;9.352;2023-12-22T06:16:48;95981.59;;;7.30;100.00
77120;BME280;66073;47.730;9.352;2023-12-22T06:19:14;95987.13;;;7.39;100.00
77120;BME280;66073;47.730;9.352;2023-12-22T06:21:40;95992.97;;;7.41;100.00
77120;BME280;66073;47.730;9.352;2023-12-22T06:24:06;95986.69;;;7.12;100.00
77120;BME280;66073;47.730;9.352;2023-12-22T06:26:33;95989.38;;;6.86;100.00
77120;BME280;66073;47.730;9.352;2023-12-22T06:28:58;95999.97;;;7.02;100.00
77120;BME280;66073;47.730;9.352;2023-12-22T06:31:24;95995.19;;;6.98;100.00
77120;BME280;66073;47.730;9.352;2023-12-22T06:33:50;96004.75;;;6.89;100.00
77120;BME280;66073;47.730;9.352;2023-12-22T06:36:23;96003.69;;;7.06;100.00
77120;BME280;66073;47.730;9.352;2023-12-22T06:38:50;96001.81;;;7.01;100.00
77120;BME280;66073;47.730;9.352;2023-12-22T06:43:49;95997.28;;;7.07;100.00
77120;BME280;66073;47.730;9.352;2023-12-22T06:46:17;96002.63;;;6.81;100.00
77120;BME280;66073;47.730;9.352;2023-12-22T06:48:43;96012.19;;;6.97;100.00
77120;BME280;66073;47.730;9.352;2023-12-22T06:51:23;95993.03;;;7.11;100.00
77120;BME280;66073;47.730;9.352;2023-12-22T06:53:50;96011.91;;;7.04;100.00
77120;BME280;66073;47.730;9.352;2023-12-22T06:58:41;96020.38;;;7.11;100.00
77120;BME280;66073;47.730;9.352;2023-12-22T07:01:07;96020.91;;;7.18;100.00
77120;BME280;66073;47.730;9.352;2023-12-22T07:03:32;96009.25;;;7.04;100.00
77120;BME280;66073;47.730;9.352;2023-12-22T07:05:58;95999.44;;;7.10;100.00
77120;BME280;66073;47.730;9.352;2023-12-22T07:08:23;96019.06;;;7.09;100.00
77120;BME280;66073;47.730;9.352;2023-12-22T07:10:49;96045.56;;;7.14;100.00
77120;BME280;66073;47.730;9.352;2023-12-22T07:13:14;96036.31;;;7.16;100.00
77120;BME280;66073;47.730;9.352;2023-12-22T07:15:40;96042.41;;;7.07;100.00
77120;BME280;66073;47.730;9.352;2023-12-22T07:18:05;96034.47;;;7.02;100.00
77120;BME280;66073;47.730;9.352;2023-12-22T07:20:31;96048.75;;;7.26;100.00
77120;BME280;66073;47.730;9.352;2023-12-22T07:22:56;96039.22;;;7.15;100.00
77120;BME280;66073;47.730;9.352;2023-12-22T07:25:22;96049.59;;;7.06;100.00
77120;BME280;66073;47.730;9.352;2023-12-22T07:27:47;96063.09;;;7.20;100.00
77120;BME280;66073;47.730;9.352;2023-12-22T07:30:13;96059.91;;;7.23;100.00
77120;BME280;66073;47.730;9.352;2023-12-22T07:32:43;96059.13;;;7.07;100.00
77120;BME280;66073;47.730;9.352;2023-12-22T07:35:09;96068.16;;;7.06;100.00
77120;BME280;66073;47.730;9.352;2023-12-22T07:37:37;96063.38;;;7.13;100.00
77120;BME280;66073;47.730;9.352;2023-12-22T07:40:03;96065.75;;;7.20;100.00
77120;BME280;66073;47.730;9.352;2023-12-22T07:42:29;96065.75;;;7.30;100.00
77120;BME280;66073;47.730;9.352;2023-12-22T07:44:54;96062.53;;;7.43;100.00
77120;BME280;66073;47.730;9.352;2023-12-22T07:47:20;96086.44;;;7.28;100.00
77120;BME280;66073;47.730;9.352;2023-12-22T07:49:45;96085.91;;;7.11;100.00
77120;BME280;66073;47.730;9.352;2023-12-22T07:52:11;96072.13;;;7.04;100.00
77120;BME280;66073;47.730;9.352;2023-12-22T07:54:36;96083.78;;;7.18;100.00
77120;BME280;66073;47.730;9.352;2023-12-22T07:57:02;96087.78;;;7.15;100.00
77120;BME280;66073;47.730;9.352;2023-12-22T07:59:27;96073.72;;;7.20;100.00
77120;BME280;66073;47.730;9.352;2023-12-22T08:01:53;96072.66;;;7.16;100.00
77120;BME280;66073;47.730;9.352;2023-12-22T08:04:18;96082.19;;;7.32;100.00
77120;BME280;66073;47.730;9.352;2023-12-22T08:06:43;96068.66;;;7.23;100.00
77120;BME280;66073;47.730;9.352;2023-12-22T08:09:09;96066.53;;;7.25;100.00
77120;BME280;66073;47.730;9.352;2023-12-22T08:11:34;96060.97;;;7.27;100.00
77120;BME280;66073;47.730;9.352;2023-12-22T08:14:00;96072.63;;;7.21;100.00
77120;BME280;66073;47.730;9.352;2023-12-22T08:16:25;96079.03;;;7.20;100.00
77120;BME280;66073;47.730;9.352;2023-12-22T08:18:51;96071.31;;;7.18;100.00
77120;BME280;66073;47.730;9.352;2023-12-22T08:21:18;96062.81;;;7.36;100.00
77120;BME280;66073;47.730;9.352;2023-12-22T08:23:43;96064.66;;;7.36;100.00
77120;BME280;66073;47.730;9.352;2023-12-22T08:26:08;96055.66;;;7.27;100.00
77120;BME280;66073;47.730;9.352;2023-12-22T08:28:34;96061.00;;;7.17;100.00
77120;BME280;66073;47.730;9.352;2023-12-22T08:30:59;96066.50;;;7.35;100.00
77120;BME280;66073;47.730;9.352;2023-12-22T08:33:25;96062.00;;;7.41;100.00
77120;BME280;66073;47.730;9.352;2023-12-22T08:35:50;96063.91;;;7.20;100.00
77120;BME280;66073;47.730;9.352;2023-12-22T08:38:16;96072.91;;;7.24;100.00
77120;BME280;66073;47.730;9.352;2023-12-22T08:40:42;96092.28;;;7.15;100.00
77120;BME280;66073;47.730;9.352;2023-12-22T08:43:08;96081.13;;;7.33;100.00
77120;BME280;66073;47.730;9.352;2023-12-22T08:45:33;96095.47;;;7.07;100.00
77120;BME280;66073;47.730;9.352;2023-12-22T08:47:58;96093.63;;;7.27;100.00
77120;BME280;66073;47.730;9.352;2023-12-22T08:50:24;96076.34;;;7.25;100.00
77120;BME280;66073;47.730;9.352;2023-12-22T08:52:49;96079.78;;;7.40;100.00
77120;BME280;66073;47.730;9.352;2023-12-22T08:55:15;96073.97;;;7.33;100.00
77120;BME280;66073;47.730;9.352;2023-12-22T08:57:41;96070.22;;;7.44;100.00
77120;BME280;66073;47.730;9.352;2023-12-22T09:00:07;96081.63;;;7.35;100.00
77120;BME280;66073;47.730;9.352;2023-12-22T09:02:32;96086.69;;;7.21;100.00
77120;BME280;66073;47.730;9.352;2023-12-22T09:04:58;96096.50;;;7.51;100.00
77120;BME280;66073;47.730;9.352;2023-12-22T09:07:23;96076.34;;;7.40;100.00
77120;BME280;66073;47.730;9.352;2023-12-22T09:09:49;96084.03;;;7.31;100.00
77120;BME280;66073;47.730;9.352;2023-12-22T09:12:15;96071.81;;;7.40;100.00
77120;BME280;66073;47.730;9.352;2023-12-22T09:14:41;96079.50;;;7.47;100.00
77120;BME280;66073;47.730;9.352;2023-12-22T09:17:06;96075.50;;;7.49;100.00
77120;BME280;66073;47.730;9.352;2023-12-22T09:19:33;96114.03;;;7.42;100.00
77120;BME280;66073;47.730;9.352;2023-12-22T09:21:59;96074.72;;;7.54;100.00
77120;BME280;66073;47.730;9.352;2023-12-22T09:24:25;96069.41;;;7.54;100.00
77120;BME280;66073;47.730;9.352;2023-12-22T09:26:50;96060.34;;;7.65;100.00
77120;BME280;66073;47.730;9.352;2023-12-22T09:29:16;96071.00;;;7.50;100.00
77120;BME280;66073;47.730;9.352;2023-12-22T09:31:42;96088.00;;;7.54;100.00
77120;BME280;66073;47.730;9.352;2023-12-22T09:34:07;96093.31;;;7.59;100.00
77120;BME280;66073;47.730;9.352;2023-12-22T09:36:33;96090.16;;;7.37;100.00
77120;BME280;66073;47.730;9.352;2023-12-22T09:38:58;96097.53;;;7.65;100.00
77120;BME280;66073;47.730;9.352;2023-12-22T09:41:24;96096.94;;;7.78;100.00
77120;BME280;66073;47.730;9.352;2023-12-22T09:43:50;96101.97;;;7.85;100.00
77120;BME280;66073;47.730;9.352;2023-12-22T09:46:20;96096.44;;;7.71;100.00
77120;BME280;66073;47.730;9.352;2023-12-22T09:48:48;96078.91;;;7.80;100.00
77120;BME280;66073;47.730;9.352;2023-12-22T09:51:17;96115.03;;;7.76;100.00
77120;BME280;66073;47.730;9.352;2023-12-22T09:53:45;96103.06;;;7.79;100.00
77120;BME280;66073;47.730;9.352;2023-12-22T09:56:11;96105.50;;;7.60;100.00
77120;BME280;66073;47.730;9.352;2023-12-22T09:58:37;96104.47;;;7.36;100.00
77120;BME280;66073;47.730;9.352;2023-12-22T10:01:05;96106.03;;;7.57;100.00
77120;BME280;66073;47.730;9.352;2023-12-22T10:03:33;96131.50;;;7.68;100.00
77120;BME280;66073;47.730;9.352;2023-12-22T10:05:59;96113.19;;;7.72;100.00
77120;BME280;66073;47.730;9.352;2023-12-22T10:08:26;96104.97;;;7.63;100.00
77120;BME280;66073;47.730;9.352;2023-12-22T10:10:52;96102.81;;;7.75;100.00
77120;BME280;66073;47.730;9.352;2023-12-22T10:13:19;96107.03;;;7.91;100.00
77120;BME280;66073;47.730;9.352;2023-12-22T10:15:46;96101.47;;;7.88;100.00
77120;BME280;66073;47.730;9.352;2023-12-22T10:18:13;96122.38;;;7.99;100.00
77120;BME280;66073;47.730;9.352;2023-12-22T10:20:39;96115.50;;;7.88;100.00
77120;BME280;66073;47.730;9.352;2023-12-22T10:23:05;96096.13;;;7.88;100.00
77120;BME280;66073;47.730;9.352;2023-12-22T10:25:31;96087.41;;;7.77;100.00
77120;BME280;66073;47.730;9.352;2023-12-22T10:27:58;96099.06;;;7.81;100.00
77120;BME280;66073;47.730;9.352;2023-12-22T10:30:24;96100.38;;;7.89;100.00
77120;BME280;66073;47.730;9.352;2023-12-22T10:32:52;96072.78;;;7.80;100.00
77120;BME280;66073;47.730;9.352;2023-12-22T10:35:20;96098.25;;;7.86;100.00
77120;BME280;66073;47.730;9.352;2023-12-22T10:37:46;96087.38;;;7.82;100.00
77120;BME280;66073;47.730;9.352;2023-12-22T10:40:13;96099.59;;;7.83;100.00
77120;BME280;66073;47.730;9.352;2023-12-22T10:42:40;96095.34;;;7.87;100.00
77120;BME280;66073;47.730;9.352;2023-12-22T10:45:06;96077.81;;;7.81;100.00
77120;BME280;66073;47.730;9.352;2023-12-22T10:47:32;96081.47;;;7.95;100.00
77120;BME280;66073;47.730;9.352;2023-12-22T10:50:02;96074.09;;;7.87;100.00
77120;BME280;66073;47.730;9.352;2023-12-22T10:52:29;96087.22;;;8.18;100.00
77120;BME280;66073;47.730;9.352;2023-12-22T10:54:57;96096.31;;;8.07;100.00
77120;BME280;66073;47.730;9.352;2023-12-22T10:57:22;96076.91;;;8.11;100.00
77120;BME280;66073;47.730;9.352;2023-12-22T10:59:48;96091.53;;;8.09;100.00
77120;BME280;66073;47.730;9.352;2023-12-22T11:02:18;96070.56;;;8.02;100.00
77120;BME280;66073;47.730;9.352;2023-12-22T11:07:23;96075.66;;;7.98;100.00
77120;BME280;66073;47.730;9.352;2023-12-22T11:09:53;96086.03;;;7.95;100.00
77120;BME280;66073;47.730;9.352;2023-12-22T11:12:23;96091.09;;;7.91;100.00
77120;BME280;66073;47.730;9.352;2023-12-22T11:14:50;96074.28;;;8.01;100.00
77120;BME280;66073;47.730;9.352;2023-12-22T11:17:22;96067.94;;;7.92;100.00
77120;BME280;66073;47.730;9.352;2023-12-22T11:19:53;96050.94;;;7.93;100.00
77120;BME280;66073;47.730;9.352;2023-12-22T11:22:21;96057.84;;;7.94;100.00
77120;BME280;66073;47.730;9.352;2023-12-22T11:24:48;96051.28;;;7.76;100.00
77120;BME280;66073;47.730;9.352;2023-12-22T11:27:19;96041.34;;;8.02;100.00
77120;BME280;66073;47.730;9.352;2023-12-22T11:29:47;96041.59;;;8.01;100.00
77120;BME280;66073;47.730;9.352;2023-12-22T11:32:15;96028.13;;;7.82;100.00
77120;BME280;66073;47.730;9.352;2023-12-22T11:34:42;96037.44;;;7.84;100.00
77120;BME280;66073;47.730;9.352;2023-12-22T11:37:11;96031.63;;;7.77;100.00
77120;BME280;66073;47.730;9.352;2023-12-22T11:39:38;96036.38;;;7.80;100.00
77120;BME280;66073;47.730;9.352;2023-12-22T11:42:08;96048.28;;;7.93;100.00
77120;BME280;66073;47.730;9.352;2023-12-22T11:44:34;96019.59;;;7.90;100.00
77120;BME280;66073;47.730;9.352;2023-12-22T11:47:08;96020.59;;;8.04;100.00
77120;BME280;66073;47.730;9.352;2023-12-22T11:49:35;96036.59;;;7.89;100.00
77120;BME280;66073;47.730;9.352;2023-12-22T11:52:14;96009.47;;;8.02;100.00
77120;BME280;66073;47.730;9.352;2023-12-22T11:54:51;96016.94;;;7.95;100.00
77120;BME280;66073;47.730;9.352;2023-12-22T12:00:02;95983.06;;;8.16;100.00
77120;BME280;66073;47.730;9.352;2023-12-22T12:02:37;95982.03;;;8.07;100.00
77120;BME280;66073;47.730;9.352;2023-12-22T12:05:07;95995.84;;;8.09;100.00
77120;BME280;66073;47.730;9.352;2023-12-22T12:10:11;95968.31;;;7.94;100.00
77120;BME280;66073;47.730;9.352;2023-12-22T12:12:37;95974.69;;;7.93;100.00
77120;BME280;66073;47.730;9.352;2023-12-22T12:15:29;95976.84;;;7.86;100.00
77120;BME280;66073;47.730;9.352;2023-12-22T12:17:54;95975.66;;;7.59;100.00
77120;BME280;66073;47.730;9.352;2023-12-22T12:20:21;95985.56;;;7.28;100.00
77120;BME280;66073;47.730;9.352;2023-12-22T12:22:46;95980.00;;;7.24;100.00
77120;BME280;66073;47.730;9.352;2023-12-22T12:25:12;95983.72;;;7.28;100.00
77120;BME280;66073;47.730;9.352;2023-12-22T12:27:38;95973.91;;;7.24;100.00
77120;BME280;66073;47.730;9.352;2023-12-22T12:30:13;95982.41;;;7.26;100.00
77120;BME280;66073;47.730;9.352;2023-12-22T12:32:42;95979.22;;;7.14;100.00
77120;BME280;66073;47.730;9.352;2023-12-22T12:35:10;95984.31;;;6.90;100.00
77120;BME280;66073;47.730;9.352;2023-12-22T12:37:37;95981.69;;;6.90;100.00
77120;BME280;66073;47.730;9.352;2023-12-22T12:40:07;95984.63;;;6.73;100.00
77120;BME280;66073;47.730;9.352;2023-12-22T12:42:35;95985.13;;;6.50;100.00
77120;BME280;66073;47.730;9.352;2023-12-22T12:45:03;95990.97;;;6.47;100.00
77120;BME280;66073;47.730;9.352;2023-12-22T12:47:29;95990.72;;;6.54;100.00
77120;BME280;66073;47.730;9.352;2023-12-22T12:50:01;95993.63;;;6.67;100.00
77120;BME280;66073;47.730;9.352;2023-12-22T12:52:28;95991.78;;;6.47;100.00
77120;BME280;66073;47.730;9.352;2023-12-22T12:54:54;95983.53;;;6.39;100.00
77120;BME280;66073;47.730;9.352;2023-12-22T12:57:21;95992.03;;;6.31;100.00
77120;BME280;66073;47.730;9.352;2023-12-22T12:59:48;95983.28;;;6.35;100.00
77120;BME280;66073;47.730;9.352;2023-12-22T13:02:18;95977.19;;;6.40;100.00
77120;BME280;66073;47.730;9.352;2023-12-22T13:04:43;95981.94;;;6.28;100.00
77120;BME280;66073;47.730;9.352;2023-12-22T13:07:09;95975.88;;;6.37;100.00
77120;BME280;66073;47.730;9.352;2023-12-22T13:09:35;95969.25;;;6.40;100.00